sensor_id;sensor_type;location;lat;lon;timestamp;temperature;humidity
80279;DHT22;70683;52.492;13.416;2023-07-13T00:01:01;22.10;53.50
80279;DHT22;70683;52.492;13.416;2023-07-13T00:03:28;22.10;53.40
80279;DHT22;70683;52.492;13.416;2023-07-13T00:05:59;22.10;53.50
80279;DHT22;70683;52.492;13.416;2023-07-13T00:08:26;22.00;53.60
80279;DHT22;70683;52.492;13.416;2023-07-13T00:10:52;21.90;53.90
80279;DHT22;70683;52.492;13.416;2023-07-13T00:13:20;21.80;54.10
80279;DHT22;70683;52.492;13.416;2023-07-13T00:15:47;21.80;54.40
80279;DHT22;70683;52.492;13.416;2023-07-13T00:18:14;21.80;54.30
80279;DHT22;70683;52.492;13.416;2023-07-13T00:20:41;21.80;54.30
80279;DHT22;70683;52.492;13.416;2023-07-13T00:23:07;21.80;54.30
80279;DHT22;70683;52.492;13.416;2023-07-13T00:25:34;21.80;55.00
80279;DHT22;70683;52.492;13.416;2023-07-13T00:28:01;21.70;54.60
80279;DHT22;70683;52.492;13.416;2023-07-13T00:30:28;21.60;54.80
80279;DHT22;70683;52.492;13.416;2023-07-13T00:32:55;21.60;54.90
80279;DHT22;70683;52.492;13.416;2023-07-13T00:35:21;21.60;55.00
80279;DHT22;70683;52.492;13.416;2023-07-13T00:37:48;21.60;54.70
80279;DHT22;70683;52.492;13.416;2023-07-13T00:40:15;21.60;54.70
80279;DHT22;70683;52.492;13.416;2023-07-13T00:42:42;21.50;54.90
80279;DHT22;70683;52.492;13.416;2023-07-13T00:48:15;21.50;55.00
80279;DHT22;70683;52.492;13.416;2023-07-13T00:50:44;21.50;55.30
80279;DHT22;70683;52.492;13.416;2023-07-13T00:53:13;21.50;55.00
80279;DHT22;70683;52.492;13.416;2023-07-13T00:55:40;21.50;55.10
80279;DHT22;70683;52.492;13.416;2023-07-13T00:58:07;21.50;54.90
80279;DHT22;70683;52.492;13.416;2023-07-13T01:00:38;21.50;54.90
80279;DHT22;70683;52.492;13.416;2023-07-13T01:03:05;21.60;55.00
80279;DHT22;70683;52.492;13.416;2023-07-13T01:05:33;21.50;55.10
80279;DHT22;70683;52.492;13.416;2023-07-13T01:08:02;21.60;55.00
80279;DHT22;70683;52.492;13.416;2023-07-13T01:10:31;21.50;55.00
80279;DHT22;70683;52.492;13.416;2023-07-13T01:13:03;21.50;55.00
80279;DHT22;70683;52.492;13.416;2023-07-13T01:15:39;21.50;55.10
80279;DHT22;70683;52.492;13.416;2023-07-13T01:18:08;21.50;54.90
80279;DHT22;70683;52.492;13.416;2023-07-13T01:20:37;21.50;55.00
80279;DHT22;70683;52.492;13.416;2023-07-13T01:23:05;21.60;55.20
80279;DHT22;70683;52.492;13.416;2023-07-13T01:25:34;21.60;55.20
80279;DHT22;70683;52.492;13.416;2023-07-13T01:28:03;21.50;55.30
80279;DHT22;70683;52.492;13.416;2023-07-13T01:30:30;21.50;55.40
80279;DHT22;70683;52.492;13.416;2023-07-13T01:32:58;21.50;55.60
80279;DHT22;70683;52.492;13.416;2023-07-13T01:35:25;21.50;55.80
80279;DHT22;70683;52.492;13.416;2023-07-13T01:37:53;21.50;55.70
80279;DHT22;70683;52.492;13.416;2023-07-13T01:40:20;21.50;55.80
80279;DHT22;70683;52.492;13.416;2023-07-13T01:42:47;21.50;55.60
80279;DHT22;70683;52.492;13.416;2023-07-13T01:45:14;21.40;55.90
80279;DHT22;70683;52.492;13.416;2023-07-13T01:47:41;21.40;55.90
80279;DHT22;70683;52.492;13.416;2023-07-13T01:50:08;21.40;55.90
80279;DHT22;70683;52.492;13.416;2023-07-13T01:52:35;21.30;55.90
80279;DHT22;70683;52.492;13.416;2023-07-13T01:55:02;21.30;55.80
80279;DHT22;70683;52.492;13.416;2023-07-13T01:57:28;21.30;56.00
80279;DHT22;70683;52.492;13.416;2023-07-13T01:59:55;21.30;56.10
80279;DHT22;70683;52.492;13.416;2023-07-13T02:02:22;21.30;56.10
80279;DHT22;70683;52.492;13.416;2023-07-13T02:04:48;21.30;56.20
80279;DHT22;70683;52.492;13.416;2023-07-13T02:07:15;21.30;56.20
80279;DHT22;70683;52.492;13.416;2023-07-13T02:09:41;21.30;56.20
80279;DHT22;70683;52.492;13.416;2023-07-13T02:12:08;21.20;56.50
80279;DHT22;70683;52.492;13.416;2023-07-13T02:14:35;21.20;56.60
80279;DHT22;70683;52.492;13.416;2023-07-13T02:17:01;21.20;56.60
80279;DHT22;70683;52.492;13.416;2023-07-13T02:19:29;21.20;56.80
80279;DHT22;70683;52.492;13.416;2023-07-13T02:21:56;21.10;57.10
80279;DHT22;70683;52.492;13.416;2023-07-13T02:24:23;21.10;57.20
80279;DHT22;70683;52.492;13.416;2023-07-13T02:26:50;21.10;57.30
80279;DHT22;70683;52.492;13.416;2023-07-13T02:29:16;20.90;57.70
80279;DHT22;70683;52.492;13.416;2023-07-13T02:31:43;20.90;57.70
80279;DHT22;70683;52.492;13.416;2023-07-13T02:34:09;20.90;57.80
80279;DHT22;70683;52.492;13.416;2023-07-13T02:36:36;20.80;57.90
80279;DHT22;70683;52.492;13.416;2023-07-13T02:39:04;20.80;58.10
80279;DHT22;70683;52.492;13.416;2023-07-13T02:41:31;20.80;58.30
80279;DHT22;70683;52.492;13.416;2023-07-13T02:43:59;20.70;58.20
80279;DHT22;70683;52.492;13.416;2023-07-13T02:46:28;20.80;58.50
80279;DHT22;70683;52.492;13.416;2023-07-13T02:48:55;20.80;58.50
80279;DHT22;70683;52.492;13.416;2023-07-13T02:51:21;20.80;58.50
80279;DHT22;70683;52.492;13.416;2023-07-13T02:53:48;20.80;58.60
80279;DHT22;70683;52.492;13.416;2023-07-13T02:56:14;20.80;58.70
80279;DHT22;70683;52.492;13.416;2023-07-13T02:58:41;20.70;58.80
80279;DHT22;70683;52.492;13.416;2023-07-13T03:01:09;20.70;58.80
80279;DHT22;70683;52.492;13.416;2023-07-13T03:03:36;20.70;58.80
80279;DHT22;70683;52.492;13.416;2023-07-13T03:06:05;20.70;59.00
80279;DHT22;70683;52.492;13.416;2023-07-13T03:08:33;20.60;59.40
80279;DHT22;70683;52.492;13.416;2023-07-13T03:11:01;20.60;59.60
80279;DHT22;70683;52.492;13.416;2023-07-13T03:13:28;20.50;59.60
80279;DHT22;70683;52.492;13.416;2023-07-13T03:15:55;20.50;59.80
80279;DHT22;70683;52.492;13.416;2023-07-13T03:18:22;20.50;59.50
80279;DHT22;70683;52.492;13.416;2023-07-13T03:20:51;20.40;59.80
80279;DHT22;70683;52.492;13.416;2023-07-13T03:23:19;20.50;59.70
80279;DHT22;70683;52.492;13.416;2023-07-13T03:25:46;20.50;60.00
80279;DHT22;70683;52.492;13.416;2023-07-13T03:28:13;20.50;60.00
80279;DHT22;70683;52.492;13.416;2023-07-13T03:30:40;20.40;60.10
80279;DHT22;70683;52.492;13.416;2023-07-13T03:33:07;20.40;59.90
80279;DHT22;70683;52.492;13.416;2023-07-13T03:35:34;20.40;60.20
80279;DHT22;70683;52.492;13.416;2023-07-13T03:38:01;20.40;60.40
80279;DHT22;70683;52.492;13.416;2023-07-13T03:40:28;20.40;60.30
80279;DHT22;70683;52.492;13.416;2023-07-13T03:42:55;20.40;60.90
80279;DHT22;70683;52.492;13.416;2023-07-13T03:45:21;20.50;60.30
80279;DHT22;70683;52.492;13.416;2023-07-13T03:47:48;20.50;60.30
80279;DHT22;70683;52.492;13.416;2023-07-13T03:50:14;20.50;60.30
80279;DHT22;70683;52.492;13.416;2023-07-13T03:52:41;20.60;60.20
80279;DHT22;70683;52.492;13.416;2023-07-13T03:55:08;20.60;61.00
80279;DHT22;70683;52.492;13.416;2023-07-13T03:57:35;20.60;60.20
80279;DHT22;70683;52.492;13.416;2023-07-13T04:00:01;20.60;60.30
80279;DHT22;70683;52.492;13.416;2023-07-13T04:02:29;20.70;60.20
80279;DHT22;70683;52.492;13.416;2023-07-13T04:04:55;20.70;60.20
80279;DHT22;70683;52.492;13.416;2023-07-13T04:07:22;20.70;60.10
80279;DHT22;70683;52.492;13.416;2023-07-13T04:09:48;20.80;60.00
80279;DHT22;70683;52.492;13.416;2023-07-13T04:12:15;20.80;59.90
80279;DHT22;70683;52.492;13.416;2023-07-13T04:14:42;20.90;59.80
80279;DHT22;70683;52.492;13.416;2023-07-13T04:17:08;20.90;59.60
80279;DHT22;70683;52.492;13.416;2023-07-13T04:19:35;21.00;59.40
80279;DHT22;70683;52.492;13.416;2023-07-13T04:22:01;21.00;59.40
80279;DHT22;70683;52.492;13.416;2023-07-13T04:24:28;21.00;59.00
80279;DHT22;70683;52.492;13.416;2023-07-13T04:26:55;21.00;58.60
80279;DHT22;70683;52.492;13.416;2023-07-13T04:29:23;21.00;58.70
80279;DHT22;70683;52.492;13.416;2023-07-13T04:31:50;21.00;58.60
80279;DHT22;70683;52.492;13.416;2023-07-13T04:34:16;21.10;58.40
80279;DHT22;70683;52.492;13.416;2023-07-13T04:36:43;21.10;58.20
80279;DHT22;70683;52.492;13.416;2023-07-13T04:39:10;21.20;58.00
80279;DHT22;70683;52.492;13.416;2023-07-13T04:41:37;21.20;58.00
80279;DHT22;70683;52.492;13.416;2023-07-13T04:44:03;21.20;57.90
80279;DHT22;70683;52.492;13.416;2023-07-13T04:46:30;21.30;57.80
80279;DHT22;70683;52.492;13.416;2023-07-13T04:48:57;21.30;57.70
80279;DHT22;70683;52.492;13.416;2023-07-13T04:51:24;21.40;57.80
80279;DHT22;70683;52.492;13.416;2023-07-13T04:53:52;21.40;57.70
80279;DHT22;70683;52.492;13.416;2023-07-13T04:56:19;21.40;57.40
80279;DHT22;70683;52.492;13.416;2023-07-13T04:58:46;21.50;57.70
80279;DHT22;70683;52.492;13.416;2023-07-13T05:01:12;21.60;57.60
80279;DHT22;70683;52.492;13.416;2023-07-13T05:03:39;21.60;58.30
80279;DHT22;70683;52.492;13.416;2023-07-13T05:06:07;21.70;58.20
80279;DHT22;70683;52.492;13.416;2023-07-13T05:08:36;21.70;57.50
80279;DHT22;70683;52.492;13.416;2023-07-13T05:11:03;21.80;56.60
80279;DHT22;70683;52.492;13.416;2023-07-13T05:13:31;21.90;57.20
80279;DHT22;70683;52.492;13.416;2023-07-13T05:16:01;22.00;57.40
80279;DHT22;70683;52.492;13.416;2023-07-13T05:18:29;22.10;56.60
80279;DHT22;70683;52.492;13.416;2023-07-13T05:21:01;22.20;56.30
80279;DHT22;70683;52.492;13.416;2023-07-13T05:23:28;22.30;56.60
80279;DHT22;70683;52.492;13.416;2023-07-13T05:25:55;22.30;55.90
80279;DHT22;70683;52.492;13.416;2023-07-13T05:28:23;22.50;55.50
80279;DHT22;70683;52.492;13.416;2023-07-13T05:30:50;22.60;55.90
80279;DHT22;70683;52.492;13.416;2023-07-13T05:33:17;22.70;55.20
80279;DHT22;70683;52.492;13.416;2023-07-13T05:35:44;22.80;54.50
80279;DHT22;70683;52.492;13.416;2023-07-13T05:38:11;22.80;54.50
80279;DHT22;70683;52.492;13.416;2023-07-13T05:40:37;22.80;54.80
80279;DHT22;70683;52.492;13.416;2023-07-13T05:43:04;22.90;54.00
80279;DHT22;70683;52.492;13.416;2023-07-13T05:45:31;22.90;53.80
80279;DHT22;70683;52.492;13.416;2023-07-13T05:47:57;23.10;53.50
80279;DHT22;70683;52.492;13.416;2023-07-13T05:50:25;23.20;53.40
80279;DHT22;70683;52.492;13.416;2023-07-13T05:52:52;23.20;53.20
80279;DHT22;70683;52.492;13.416;2023-07-13T05:55:19;23.20;53.30
80279;DHT22;70683;52.492;13.416;2023-07-13T05:57:46;23.40;53.10
80279;DHT22;70683;52.492;13.416;2023-07-13T06:00:13;23.50;52.90
80279;DHT22;70683;52.492;13.416;2023-07-13T06:02:40;23.60;52.60
80279;DHT22;70683;52.492;13.416;2023-07-13T06:05:07;23.70;52.50
80279;DHT22;70683;52.492;13.416;2023-07-13T06:07:34;23.80;52.50
80279;DHT22;70683;52.492;13.416;2023-07-13T06:10:01;23.70;52.40
80279;DHT22;70683;52.492;13.416;2023-07-13T06:12:27;23.80;51.90
80279;DHT22;70683;52.492;13.416;2023-07-13T06:14:54;24.00;52.00
80279;DHT22;70683;52.492;13.416;2023-07-13T06:17:20;24.10;51.60
80279;DHT22;70683;52.492;13.416;2023-07-13T06:19:47;24.20;51.10
80279;DHT22;70683;52.492;13.416;2023-07-13T06:22:14;24.40;50.60
80279;DHT22;70683;52.492;13.416;2023-07-13T06:24:40;24.30;50.60
80279;DHT22;70683;52.492;13.416;2023-07-13T06:27:07;24.50;50.00
80279;DHT22;70683;52.492;13.416;2023-07-13T06:29:33;24.50;49.00
80279;DHT22;70683;52.492;13.416;2023-07-13T06:32:00;24.50;49.60
80279;DHT22;70683;52.492;13.416;2023-07-13T06:34:27;24.60;49.30
80279;DHT22;70683;52.492;13.416;2023-07-13T06:36:54;24.50;49.60
80279;DHT22;70683;52.492;13.416;2023-07-13T06:39:20;24.60;49.40
80279;DHT22;70683;52.492;13.416;2023-07-13T06:41:47;24.50;49.70
80279;DHT22;70683;52.492;13.416;2023-07-13T06:44:14;24.30;49.60
80279;DHT22;70683;52.492;13.416;2023-07-13T06:46:40;24.30;50.20
80279;DHT22;70683;52.492;13.416;2023-07-13T06:49:08;24.40;49.80
80279;DHT22;70683;52.492;13.416;2023-07-13T06:51:35;24.70;49.80
80279;DHT22;70683;52.492;13.416;2023-07-13T06:54:03;24.80;48.80
80279;DHT22;70683;52.492;13.416;2023-07-13T06:56:29;25.10;48.30
80279;DHT22;70683;52.492;13.416;2023-07-13T06:58:56;24.80;47.80
80279;DHT22;70683;52.492;13.416;2023-07-13T07:01:23;24.70;48.80
80279;DHT22;70683;52.492;13.416;2023-07-13T07:03:49;24.80;48.60
80279;DHT22;70683;52.492;13.416;2023-07-13T07:06:19;25.10;48.20
80279;DHT22;70683;52.492;13.416;2023-07-13T07:08:47;25.40;47.50
80279;DHT22;70683;52.492;13.416;2023-07-13T07:11:17;25.50;46.20
80279;DHT22;70683;52.492;13.416;2023-07-13T07:13:44;25.80;46.40
80279;DHT22;70683;52.492;13.416;2023-07-13T07:16:11;26.00;45.80
80279;DHT22;70683;52.492;13.416;2023-07-13T07:18:37;26.30;44.70
80279;DHT22;70683;52.492;13.416;2023-07-13T07:21:04;26.60;44.00
80279;DHT22;70683;52.492;13.416;2023-07-13T07:23:31;26.90;42.30
80279;DHT22;70683;52.492;13.416;2023-07-13T07:25:58;26.90;41.80
80279;DHT22;70683;52.492;13.416;2023-07-13T07:28:25;26.70;41.80
80279;DHT22;70683;52.492;13.416;2023-07-13T07:30:56;26.90;42.60
80279;DHT22;70683;52.492;13.416;2023-07-13T07:33:24;27.10;41.90
80279;DHT22;70683;52.492;13.416;2023-07-13T07:35:51;27.10;41.80
80279;DHT22;70683;52.492;13.416;2023-07-13T07:38:18;27.40;41.50
80279;DHT22;70683;52.492;13.416;2023-07-13T07:40:44;27.60;41.50
80279;DHT22;70683;52.492;13.416;2023-07-13T07:43:12;28.10;39.20
80279;DHT22;70683;52.492;13.416;2023-07-13T07:45:40;28.10;38.70
80279;DHT22;70683;52.492;13.416;2023-07-13T07:48:07;28.00;38.40
80279;DHT22;70683;52.492;13.416;2023-07-13T07:50:35;28.10;39.00
80279;DHT22;70683;52.492;13.416;2023-07-13T07:53:03;28.30;38.60
80279;DHT22;70683;52.492;13.416;2023-07-13T07:55:33;28.60;38.70
80279;DHT22;70683;52.492;13.416;2023-07-13T07:58:01;29.00;38.30
80279;DHT22;70683;52.492;13.416;2023-07-13T08:00:28;29.20;37.50
80279;DHT22;70683;52.492;13.416;2023-07-13T08:02:57;28.90;37.60
80279;DHT22;70683;52.492;13.416;2023-07-13T08:05:24;28.20;38.90
80279;DHT22;70683;52.492;13.416;2023-07-13T08:07:51;27.80;39.70
80279;DHT22;70683;52.492;13.416;2023-07-13T08:10:17;27.30;40.50
80279;DHT22;70683;52.492;13.416;2023-07-13T08:12:44;27.30;41.40
80279;DHT22;70683;52.492;13.416;2023-07-13T08:15:14;27.20;41.50
80279;DHT22;70683;52.492;13.416;2023-07-13T08:17:41;27.30;41.00
80279;DHT22;70683;52.492;13.416;2023-07-13T08:20:08;27.30;40.50
80279;DHT22;70683;52.492;13.416;2023-07-13T08:22:35;27.50;40.80
80279;DHT22;70683;52.492;13.416;2023-07-13T08:25:02;27.70;40.00
80279;DHT22;70683;52.492;13.416;2023-07-13T08:27:29;27.80;39.20
80279;DHT22;70683;52.492;13.416;2023-07-13T08:29:56;27.60;39.30
80279;DHT22;70683;52.492;13.416;2023-07-13T08:32:23;27.20;40.20
80279;DHT22;70683;52.492;13.416;2023-07-13T08:34:50;27.30;40.70
80279;DHT22;70683;52.492;13.416;2023-07-13T08:37:19;27.40;40.20
80279;DHT22;70683;52.492;13.416;2023-07-13T08:39:46;27.20;39.40
80279;DHT22;70683;52.492;13.416;2023-07-13T08:42:22;26.50;40.80
80279;DHT22;70683;52.492;13.416;2023-07-13T08:45:07;26.40;41.90
80279;DHT22;70683;52.492;13.416;2023-07-13T08:47:39;26.50;42.00
80279;DHT22;70683;52.492;13.416;2023-07-13T08:50:12;26.70;41.90
80279;DHT22;70683;52.492;13.416;2023-07-13T08:52:42;26.60;42.00
80279;DHT22;70683;52.492;13.416;2023-07-13T08:55:15;26.30;42.10
80279;DHT22;70683;52.492;13.416;2023-07-13T08:57:44;26.40;42.80
80279;DHT22;70683;52.492;13.416;2023-07-13T09:00:13;26.60;42.60
80279;DHT22;70683;52.492;13.416;2023-07-13T09:02:46;26.60;41.90
80279;DHT22;70683;52.492;13.416;2023-07-13T09:05:17;26.70;42.00
80279;DHT22;70683;52.492;13.416;2023-07-13T09:10:53;27.50;40.30
80279;DHT22;70683;52.492;13.416;2023-07-13T09:13:35;27.90;39.20
80279;DHT22;70683;52.492;13.416;2023-07-13T09:16:01;28.40;38.40
80279;DHT22;70683;52.492;13.416;2023-07-13T09:18:33;28.80;37.10
80279;DHT22;70683;52.492;13.416;2023-07-13T09:21:10;29.20;35.80
80279;DHT22;70683;52.492;13.416;2023-07-13T09:23:39;29.40;36.00
80279;DHT22;70683;52.492;13.416;2023-07-13T09:26:16;29.20;35.10
80279;DHT22;70683;52.492;13.416;2023-07-13T09:28:46;29.30;35.50
80279;DHT22;70683;52.492;13.416;2023-07-13T09:31:16;29.70;34.40
80279;DHT22;70683;52.492;13.416;2023-07-13T09:33:44;30.20;33.20
80279;DHT22;70683;52.492;13.416;2023-07-13T09:36:31;30.50;33.40
80279;DHT22;70683;52.492;13.416;2023-07-13T09:39:15;30.70;31.40
80279;DHT22;70683;52.492;13.416;2023-07-13T09:41:46;30.80;31.80
80279;DHT22;70683;52.492;13.416;2023-07-13T09:44:14;30.90;31.70
80279;DHT22;70683;52.492;13.416;2023-07-13T09:46:51;30.60;32.40
80279;DHT22;70683;52.492;13.416;2023-07-13T09:49:15;30.80;30.90
80279;DHT22;70683;52.492;13.416;2023-07-13T09:51:43;31.30;30.10
80279;DHT22;70683;52.492;13.416;2023-07-13T09:54:18;31.40;29.10
80279;DHT22;70683;52.492;13.416;2023-07-13T09:56:46;31.20;29.00
80279;DHT22;70683;52.492;13.416;2023-07-13T09:59:20;31.20;30.10
80279;DHT22;70683;52.492;13.416;2023-07-13T10:01:47;31.20;29.80
80279;DHT22;70683;52.492;13.416;2023-07-13T10:04:17;31.20;30.00
80279;DHT22;70683;52.492;13.416;2023-07-13T10:06:45;31.20;29.50
80279;DHT22;70683;52.492;13.416;2023-07-13T10:09:16;30.70;29.30
80279;DHT22;70683;52.492;13.416;2023-07-13T10:11:43;30.50;30.00
80279;DHT22;70683;52.492;13.416;2023-07-13T10:14:16;30.20;30.00
80279;DHT22;70683;52.492;13.416;2023-07-13T10:16:45;29.80;30.90
80279;DHT22;70683;52.492;13.416;2023-07-13T10:19:19;29.80;32.40
80279;DHT22;70683;52.492;13.416;2023-07-13T10:21:54;30.00;32.40
80279;DHT22;70683;52.492;13.416;2023-07-13T10:24:24;30.20;32.00
80279;DHT22;70683;52.492;13.416;2023-07-13T10:27:01;30.30;31.50
80279;DHT22;70683;52.492;13.416;2023-07-13T10:29:34;30.70;31.20
80279;DHT22;70683;52.492;13.416;2023-07-13T10:32:02;30.80;29.60
80279;DHT22;70683;52.492;13.416;2023-07-13T10:34:29;30.60;30.30
80279;DHT22;70683;52.492;13.416;2023-07-13T10:36:57;30.50;30.80
80279;DHT22;70683;52.492;13.416;2023-07-13T10:39:27;30.30;31.30
80279;DHT22;70683;52.492;13.416;2023-07-13T10:41:59;30.60;30.20
80279;DHT22;70683;52.492;13.416;2023-07-13T10:44:29;30.90;30.00
80279;DHT22;70683;52.492;13.416;2023-07-13T10:47:06;31.00;29.90
80279;DHT22;70683;52.492;13.416;2023-07-13T10:49:32;31.10;29.60
80279;DHT22;70683;52.492;13.416;2023-07-13T10:52:01;30.90;29.70
80279;DHT22;70683;52.492;13.416;2023-07-13T10:54:31;30.90;29.10
80279;DHT22;70683;52.492;13.416;2023-07-13T10:57:07;30.80;29.80
80279;DHT22;70683;52.492;13.416;2023-07-13T10:59:35;30.60;29.90
80279;DHT22;70683;52.492;13.416;2023-07-13T11:02:13;30.60;30.00
80279;DHT22;70683;52.492;13.416;2023-07-13T11:04:43;30.90;29.70
80279;DHT22;70683;52.492;13.416;2023-07-13T11:07:22;31.10;29.10
80279;DHT22;70683;52.492;13.416;2023-07-13T11:09:52;31.10;29.60
80279;DHT22;70683;52.492;13.416;2023-07-13T11:12:29;31.20;28.00
80279;DHT22;70683;52.492;13.416;2023-07-13T11:15:11;31.30;28.70
80279;DHT22;70683;52.492;13.416;2023-07-13T11:17:50;31.40;28.30
80279;DHT22;70683;52.492;13.416;2023-07-13T11:20:23;31.70;28.30
80279;DHT22;70683;52.492;13.416;2023-07-13T11:23:06;31.90;28.10
80279;DHT22;70683;52.492;13.416;2023-07-13T11:25:30;32.00;28.20
80279;DHT22;70683;52.492;13.416;2023-07-13T11:28:05;31.90;27.20
80279;DHT22;70683;52.492;13.416;2023-07-13T11:30:36;32.30;27.30
80279;DHT22;70683;52.492;13.416;2023-07-13T11:33:16;32.40;26.80
80279;DHT22;70683;52.492;13.416;2023-07-13T11:35:51;32.20;27.10
80279;DHT22;70683;52.492;13.416;2023-07-13T11:38:27;32.80;26.90
80279;DHT22;70683;52.492;13.416;2023-07-13T11:40:54;33.20;25.60
80279;DHT22;70683;52.492;13.416;2023-07-13T11:43:21;33.00;26.00
80279;DHT22;70683;52.492;13.416;2023-07-13T11:45:50;33.50;26.20
80279;DHT22;70683;52.492;13.416;2023-07-13T11:48:22;33.90;26.10
80279;DHT22;70683;52.492;13.416;2023-07-13T11:50:53;34.10;25.10
80279;DHT22;70683;52.492;13.416;2023-07-13T11:53:21;33.90;25.70
80279;DHT22;70683;52.492;13.416;2023-07-13T11:55:48;34.30;25.20
80279;DHT22;70683;52.492;13.416;2023-07-13T11:58:19;34.20;25.70
80279;DHT22;70683;52.492;13.416;2023-07-13T12:00:47;34.10;25.10
80279;DHT22;70683;52.492;13.416;2023-07-13T12:03:18;34.30;25.50
80279;DHT22;70683;52.492;13.416;2023-07-13T12:05:56;34.20;25.10
80279;DHT22;70683;52.492;13.416;2023-07-13T12:08:23;34.20;24.10
80279;DHT22;70683;52.492;13.416;2023-07-13T12:10:58;34.60;24.30
80279;DHT22;70683;52.492;13.416;2023-07-13T12:13:27;34.80;23.80
80279;DHT22;70683;52.492;13.416;2023-07-13T12:15:56;35.20;23.10
80279;DHT22;70683;52.492;13.416;2023-07-13T12:18:28;35.80;23.60
80279;DHT22;70683;52.492;13.416;2023-07-13T12:20:57;36.10;23.30
80279;DHT22;70683;52.492;13.416;2023-07-13T12:23:28;37.40;22.00
80279;DHT22;70683;52.492;13.416;2023-07-13T12:25:54;38.20;21.70
80279;DHT22;70683;52.492;13.416;2023-07-13T12:28:28;38.30;20.90
80279;DHT22;70683;52.492;13.416;2023-07-13T12:30:53;37.20;22.00
80279;DHT22;70683;52.492;13.416;2023-07-13T12:33:23;36.90;22.00
80279;DHT22;70683;52.492;13.416;2023-07-13T12:35:52;37.40;21.00
80279;DHT22;70683;52.492;13.416;2023-07-13T12:38:19;37.00;21.70
80279;DHT22;70683;52.492;13.416;2023-07-13T12:40:51;36.30;22.70
80279;DHT22;70683;52.492;13.416;2023-07-13T12:43:21;36.60;22.00
80279;DHT22;70683;52.492;13.416;2023-07-13T12:46:05;36.90;21.70
80279;DHT22;70683;52.492;13.416;2023-07-13T12:48:38;36.70;21.80
80279;DHT22;70683;52.492;13.416;2023-07-13T12:51:10;35.60;22.50
80279;DHT22;70683;52.492;13.416;2023-07-13T12:53:40;34.80;24.30
80279;DHT22;70683;52.492;13.416;2023-07-13T12:56:11;35.00;23.20
80279;DHT22;70683;52.492;13.416;2023-07-13T12:58:40;35.20;23.60
80279;DHT22;70683;52.492;13.416;2023-07-13T13:01:10;35.90;22.70
80279;DHT22;70683;52.492;13.416;2023-07-13T13:03:40;36.10;22.70
80279;DHT22;70683;52.492;13.416;2023-07-13T13:08:58;36.70;21.80
80279;DHT22;70683;52.492;13.416;2023-07-13T13:11:27;36.50;21.10
80279;DHT22;70683;52.492;13.416;2023-07-13T13:13:54;36.20;21.50
80279;DHT22;70683;52.492;13.416;2023-07-13T13:16:33;35.90;21.70
80279;DHT22;70683;52.492;13.416;2023-07-13T13:19:19;35.50;22.30
80279;DHT22;70683;52.492;13.416;2023-07-13T13:21:48;35.60;22.80
80279;DHT22;70683;52.492;13.416;2023-07-13T13:24:19;36.00;22.60
80279;DHT22;70683;52.492;13.416;2023-07-13T13:26:48;36.10;22.50
80279;DHT22;70683;52.492;13.416;2023-07-13T13:29:20;36.50;22.10
80279;DHT22;70683;52.492;13.416;2023-07-13T13:31:46;37.10;21.60
80279;DHT22;70683;52.492;13.416;2023-07-13T13:34:15;37.60;21.60
80279;DHT22;70683;52.492;13.416;2023-07-13T13:36:43;37.90;21.20
80279;DHT22;70683;52.492;13.416;2023-07-13T13:41:46;38.40;20.50
80279;DHT22;70683;52.492;13.416;2023-07-13T13:44:15;38.40;20.60
80279;DHT22;70683;52.492;13.416;2023-07-13T13:46:45;38.50;20.30
80279;DHT22;70683;52.492;13.416;2023-07-13T13:49:21;37.90;20.60
80279;DHT22;70683;52.492;13.416;2023-07-13T13:51:48;37.60;20.60
80279;DHT22;70683;52.492;13.416;2023-07-13T13:54:17;36.50;20.80
80279;DHT22;70683;52.492;13.416;2023-07-13T13:56:45;35.60;21.60
80279;DHT22;70683;52.492;13.416;2023-07-13T13:59:13;34.90;23.10
80279;DHT22;70683;52.492;13.416;2023-07-13T14:01:42;34.10;24.00
80279;DHT22;70683;52.492;13.416;2023-07-13T14:04:19;33.10;24.50
80279;DHT22;70683;52.492;13.416;2023-07-13T14:06:47;32.50;25.60
80279;DHT22;70683;52.492;13.416;2023-07-13T14:09:16;31.90;26.00
80279;DHT22;70683;52.492;13.416;2023-07-13T14:11:44;31.60;26.80
80279;DHT22;70683;52.492;13.416;2023-07-13T14:14:18;31.20;27.00
80279;DHT22;70683;52.492;13.416;2023-07-13T14:16:45;31.00;27.70
80279;DHT22;70683;52.492;13.416;2023-07-13T14:19:14;30.80;27.60
80279;DHT22;70683;52.492;13.416;2023-07-13T14:21:41;30.50;27.80
80279;DHT22;70683;52.492;13.416;2023-07-13T14:24:08;30.30;27.70
80279;DHT22;70683;52.492;13.416;2023-07-13T14:26:37;30.10;27.80
80279;DHT22;70683;52.492;13.416;2023-07-13T14:29:14;29.90;28.30
80279;DHT22;70683;52.492;13.416;2023-07-13T14:31:41;29.70;29.20
80279;DHT22;70683;52.492;13.416;2023-07-13T14:34:10;29.60;29.40
80279;DHT22;70683;52.492;13.416;2023-07-13T14:36:40;29.60;29.50
80279;DHT22;70683;52.492;13.416;2023-07-13T14:39:15;29.50;29.70
80279;DHT22;70683;52.492;13.416;2023-07-13T14:41:43;29.30;29.70
80279;DHT22;70683;52.492;13.416;2023-07-13T14:44:12;29.30;29.90
80279;DHT22;70683;52.492;13.416;2023-07-13T14:46:40;29.30;30.00
80279;DHT22;70683;52.492;13.416;2023-07-13T14:49:15;29.40;30.00
80279;DHT22;70683;52.492;13.416;2023-07-13T14:51:41;29.40;30.00
80279;DHT22;70683;52.492;13.416;2023-07-13T14:54:09;29.30;30.00
80279;DHT22;70683;52.492;13.416;2023-07-13T14:56:37;29.30;30.30
80279;DHT22;70683;52.492;13.416;2023-07-13T14:59:03;29.30;30.30
80279;DHT22;70683;52.492;13.416;2023-07-13T15:01:31;29.20;30.50
80279;DHT22;70683;52.492;13.416;2023-07-13T15:03:58;29.20;29.70
80279;DHT22;70683;52.492;13.416;2023-07-13T15:06:25;29.00;29.80
80279;DHT22;70683;52.492;13.416;2023-07-13T15:08:52;28.90;30.20
80279;DHT22;70683;52.492;13.416;2023-07-13T15:11:18;28.80;30.50
80279;DHT22;70683;52.492;13.416;2023-07-13T15:13:45;28.70;30.40
80279;DHT22;70683;52.492;13.416;2023-07-13T15:16:16;28.60;31.10
80279;DHT22;70683;52.492;13.416;2023-07-13T15:18:45;28.60;31.00
80279;DHT22;70683;52.492;13.416;2023-07-13T15:21:18;28.50;30.60
80279;DHT22;70683;52.492;13.416;2023-07-13T15:23:42;28.60;30.60
80279;DHT22;70683;52.492;13.416;2023-07-13T15:26:13;28.50;30.50
80279;DHT22;70683;52.492;13.416;2023-07-13T15:28:41;28.60;30.60
80279;DHT22;70683;52.492;13.416;2023-07-13T15:31:18;28.60;30.00
80279;DHT22;70683;52.492;13.416;2023-07-13T15:33:45;28.60;29.60
80279;DHT22;70683;52.492;13.416;2023-07-13T15:36:16;28.50;29.90